createdAt,value
2019-02-02T00:01:53.060Z,52.93
2019-02-02T00:04:22.548Z,51.83
2019-02-02T00:06:52.151Z,45.20
2019-02-02T00:09:21.565Z,92.63
2019-02-02T00:11:51.055Z,50.43
2019-02-02T00:14:20.490Z,53.00
2019-02-02T00:16:50.101Z,58.10
2019-02-02T00:19:19.508Z,104.30
2019-02-02T00:21:48.894Z,74.33
2019-02-02T00:24:18.477Z,72.87
2019-02-02T00:26:47.840Z,87.97
2019-02-02T00:29:17.219Z,60.67
2019-02-02T00:31:46.647Z,50.10
2019-02-02T00:34:16.022Z,55.77
2019-02-02T00:36:45.453Z,99.13
2019-02-02T00:39:14.836Z,127.93
2019-02-02T00:41:44.334Z,65.90
2019-02-02T00:44:14.108Z,60.93
2019-02-02T00:46:43.630Z,104.57
2019-02-02T00:49:13.141Z,256.67
2019-02-02T00:51:42.537Z,197.60
2019-02-02T00:54:11.999Z,206.83
2019-02-02T00:56:41.462Z,179.33
2019-02-02T00:59:10.886Z,155.00
2019-02-02T01:01:40.330Z,109.40
2019-02-02T01:04:10.487Z,64.27
2019-02-02T01:06:40.176Z,135.30
2019-02-02T01:09:25.843Z,119.83
2019-02-02T01:11:55.443Z,119.53
2019-02-02T01:14:24.920Z,145.95
2019-02-02T01:16:54.673Z,51.53
2019-02-02T01:19:24.054Z,98.40
2019-02-02T01:21:53.462Z,53.83
2019-02-02T01:24:22.974Z,41.90
2019-02-02T01:26:52.451Z,111.93
2019-02-02T01:29:21.841Z,215.20
2019-02-02T01:31:51.289Z,126.47
2019-02-02T01:34:20.812Z,141.50
2019-02-02T01:36:50.235Z,49.83
2019-02-02T01:39:19.664Z,238.50
2019-02-02T01:41:49.037Z,160.10
2019-02-02T01:44:18.548Z,146.87
2019-02-02T01:46:47.940Z,217.07
2019-02-02T01:49:17.442Z,129.03
2019-02-02T01:51:46.870Z,60.73
2019-02-02T01:54:16.281Z,62.90
2019-02-02T01:56:45.881Z,147.50
2019-02-02T01:59:15.412Z,97.53
2019-02-02T02:01:44.997Z,79.90
2019-02-02T02:04:14.413Z,187.93
2019-02-02T02:06:43.955Z,86.50
2019-02-02T02:09:13.409Z,87.40
2019-02-02T02:11:42.809Z,142.90
2019-02-02T02:14:12.232Z,144.87
2019-02-02T02:16:41.928Z,268.27
2019-02-02T02:19:11.461Z,177.07
2019-02-02T02:21:40.875Z,149.73
2019-02-02T02:24:10.344Z,110.47
2019-02-02T02:26:39.863Z,116.17
2019-02-02T02:29:09.337Z,311.60
2019-02-02T02:31:38.755Z,139.13
2019-02-02T02:34:08.148Z,63.13
2019-02-02T02:36:37.523Z,84.67
2019-02-02T02:39:09.464Z,91.13
2019-02-02T02:41:38.849Z,54.97
2019-02-02T02:44:08.353Z,43.80
2019-02-02T02:46:37.739Z,53.43
2019-02-02T02:49:07.125Z,64.77
2019-02-02T02:51:36.654Z,177.60
2019-02-02T02:54:06.804Z,86.03
2019-02-02T02:56:36.487Z,102.77
2019-02-02T02:59:06.140Z,280.37
2019-02-02T03:01:35.604Z,110.70
2019-02-02T03:04:05.236Z,106.33
2019-02-02T03:06:34.635Z,122.50
2019-02-02T03:09:06.779Z,229.10
2019-02-02T03:11:36.195Z,151.13
2019-02-02T03:14:05.716Z,127.07
2019-02-02T03:16:35.098Z,78.73
2019-02-02T03:19:04.522Z,66.10
2019-02-02T03:21:33.977Z,40.57
2019-02-02T03:24:03.427Z,90.40
2019-02-02T03:26:32.843Z,129.00
2019-02-02T03:29:02.243Z,380.83
2019-02-02T03:31:31.760Z,88.57
2019-02-02T03:34:01.154Z,183.80
2019-02-02T03:36:30.619Z,162.63
2019-02-02T03:39:00.019Z,95.03
2019-02-02T03:41:29.501Z,42.13
2019-02-02T03:43:58.939Z,45.70
2019-02-02T03:46:28.421Z,147.37
2019-02-02T03:48:57.840Z,81.67
2019-02-02T03:51:27.315Z,78.07
2019-02-02T03:54:08.208Z,80.77
2019-02-02T03:56:27.823Z,121.73
2019-02-02T03:59:05.923Z,320.17
2019-02-02T04:01:30.221Z,264.00
2019-02-02T04:03:59.867Z,118.93
2019-02-02T04:06:29.223Z,90.03
2019-02-02T04:08:58.637Z,67.17
2019-02-02T04:11:28.028Z,99.60
2019-02-02T04:13:57.436Z,76.37
2019-02-02T04:16:26.819Z,63.53
2019-02-02T04:18:56.510Z,72.63
2019-02-02T04:21:26.032Z,54.55
2019-02-02T04:23:55.496Z,56.75
2019-02-02T04:26:25.044Z,43.52
2019-02-02T04:28:54.794Z,47.00
2019-02-02T04:31:24.307Z,50.92
2019-02-02T04:33:53.809Z,41.73
2019-02-02T04:36:23.277Z,41.80
2019-02-02T04:38:52.796Z,44.50
2019-02-02T04:41:22.211Z,47.07
2019-02-02T04:43:51.630Z,46.23
2019-02-02T04:46:21.023Z,46.57
2019-02-02T04:48:50.439Z,44.43
2019-02-02T04:51:19.960Z,41.50
2019-02-02T04:53:49.484Z,48.63
2019-02-02T04:56:18.997Z,46.23
2019-02-02T04:58:48.421Z,44.37
2019-02-02T05:01:17.970Z,44.30
2019-02-02T05:03:47.387Z,44.97
2019-02-02T05:06:16.797Z,38.57
2019-02-02T05:08:46.170Z,38.77
2019-02-02T05:11:15.857Z,40.90
2019-02-02T05:13:45.247Z,43.10
2019-02-02T05:16:14.683Z,43.37
2019-02-02T05:18:44.093Z,40.37
2019-02-02T05:21:13.496Z,46.63
2019-02-02T05:23:42.942Z,45.90
2019-02-02T05:26:12.359Z,46.80
2019-02-02T05:28:41.835Z,43.40
2019-02-02T05:31:11.272Z,47.30
2019-02-02T05:33:40.721Z,43.43
2019-02-02T05:36:10.126Z,47.37
2019-02-02T05:38:39.719Z,47.53
2019-02-02T05:41:09.152Z,55.80
2019-02-02T05:43:38.535Z,44.13
2019-02-02T05:46:07.935Z,43.87
2019-02-02T05:48:37.331Z,39.27
2019-02-02T05:51:06.763Z,40.17
2019-02-02T05:53:36.142Z,46.50
2019-02-02T05:56:05.984Z,38.97
2019-02-02T05:58:35.418Z,49.73
2019-02-02T06:01:05.942Z,40.37
2019-02-02T06:03:35.375Z,51.77
2019-02-02T06:06:04.759Z,42.73
2019-02-02T06:08:34.286Z,45.23
2019-02-02T06:11:03.697Z,36.40
2019-02-02T06:13:33.197Z,47.75
2019-02-02T06:16:02.578Z,38.20
2019-02-02T06:18:32.172Z,38.20
2019-02-02T06:21:01.581Z,53.03
2019-02-02T06:23:30.963Z,43.20
2019-02-02T06:26:00.376Z,54.67
2019-02-02T06:28:29.826Z,44.07
2019-02-02T06:31:00.223Z,41.80
2019-02-02T06:33:29.683Z,43.00
2019-02-02T06:35:59.130Z,41.37
2019-02-02T06:38:28.609Z,46.90
2019-02-02T06:40:58.148Z,40.80
2019-02-02T06:43:30.287Z,40.87
2019-02-02T06:45:58.758Z,48.80
2019-02-02T06:48:28.123Z,42.80
2019-02-02T06:50:57.531Z,42.93
2019-02-02T06:53:26.940Z,45.87
2019-02-02T06:55:56.318Z,50.83
2019-02-02T06:58:25.831Z,44.33
2019-02-02T07:00:55.353Z,42.80
2019-02-02T07:03:24.775Z,43.37
2019-02-02T07:05:54.141Z,46.40
2019-02-02T07:08:23.551Z,53.77
2019-02-02T07:10:52.919Z,43.80
2019-02-02T07:13:22.290Z,42.10
2019-02-02T07:15:51.755Z,47.83
2019-02-02T07:18:21.147Z,44.70
2019-02-02T07:20:50.632Z,47.70
2019-02-02T07:23:20.019Z,43.73
2019-02-02T07:25:49.468Z,46.37
2019-02-02T07:28:18.872Z,43.30
2019-02-02T07:30:48.389Z,49.13
2019-02-02T07:33:17.858Z,43.00
2019-02-02T07:35:47.253Z,46.30
2019-02-02T07:38:16.655Z,44.63
2019-02-02T07:40:46.378Z,43.47
2019-02-02T07:43:15.778Z,49.13
2019-02-02T07:45:45.228Z,44.03
2019-02-02T07:48:14.598Z,39.90
2019-02-02T07:50:44.044Z,35.37
2019-02-02T07:53:13.514Z,36.23
2019-02-02T07:55:42.980Z,45.43
2019-02-02T07:58:12.510Z,46.60
2019-02-02T08:00:41.911Z,40.40
2019-02-02T08:03:12.822Z,52.20
2019-02-02T08:05:42.195Z,45.67
2019-02-02T08:08:11.637Z,51.93
2019-02-02T08:10:41.011Z,47.30
2019-02-02T08:13:10.502Z,43.27
2019-02-02T08:15:40.036Z,50.77
2019-02-02T08:18:09.427Z,38.43
2019-02-02T08:20:38.826Z,44.60
2019-02-02T08:23:08.216Z,50.40
2019-02-02T08:25:37.618Z,45.20
2019-02-02T08:28:08.197Z,50.73
2019-02-02T08:30:37.684Z,47.97
2019-02-02T08:33:07.851Z,52.97
2019-02-02T08:35:37.372Z,39.87
2019-02-02T08:38:06.958Z,52.83
2019-02-02T08:40:36.459Z,46.90
2019-02-02T08:43:05.847Z,44.67
2019-02-02T08:45:35.241Z,47.30
2019-02-02T08:48:04.865Z,44.93
2019-02-02T08:50:36.815Z,41.33
2019-02-02T08:53:06.537Z,43.00
2019-02-02T08:55:35.956Z,35.00
2019-02-02T08:58:05.824Z,39.30
2019-02-02T09:00:35.502Z,41.18
2019-02-02T09:03:05.279Z,45.97
2019-02-02T09:05:34.707Z,57.77
2019-02-02T09:08:04.199Z,43.00
2019-02-02T09:10:33.635Z,41.67
2019-02-02T09:13:03.130Z,38.75
2019-02-02T09:15:32.510Z,44.90
2019-02-02T09:18:01.955Z,41.20
2019-02-02T09:20:31.431Z,53.30
2019-02-02T09:23:06.235Z,43.30
2019-02-02T09:25:32.263Z,46.48
2019-02-02T09:28:03.378Z,43.13
2019-02-02T09:30:35.212Z,41.57
2019-02-02T09:33:05.185Z,43.73
2019-02-02T09:35:34.583Z,43.50
2019-02-02T09:38:04.071Z,38.37
2019-02-02T09:40:33.491Z,38.97
2019-02-02T09:43:02.900Z,43.00
2019-02-02T09:45:32.312Z,41.20
2019-02-02T09:48:03.361Z,40.20
2019-02-02T09:50:33.153Z,35.63
2019-02-02T09:53:02.562Z,41.10
2019-02-02T09:55:31.943Z,36.80
2019-02-02T09:58:04.943Z,34.27
2019-02-02T10:00:34.340Z,43.63
2019-02-02T10:03:03.763Z,41.27
2019-02-02T10:05:33.252Z,46.13
2019-02-02T10:08:02.775Z,49.70
2019-02-02T10:10:34.095Z,43.37
2019-02-02T10:13:05.385Z,39.80
2019-02-02T10:15:34.813Z,42.67
2019-02-02T10:18:05.296Z,40.80
2019-02-02T10:20:34.753Z,43.53
2019-02-02T10:23:04.667Z,46.40
2019-02-02T10:25:34.059Z,47.90
2019-02-02T10:28:03.433Z,42.90
2019-02-02T10:30:43.895Z,44.20
2019-02-02T10:33:14.663Z,46.67
2019-02-02T10:35:44.474Z,50.40
2019-02-02T10:38:13.899Z,43.00
2019-02-02T10:40:43.292Z,42.73
2019-02-02T10:43:12.996Z,38.80
2019-02-02T10:45:42.381Z,44.70
2019-02-02T10:48:11.779Z,47.20
2019-02-02T10:50:41.165Z,46.30
2019-02-02T10:53:10.699Z,49.33
2019-02-02T10:55:40.251Z,47.43
2019-02-02T10:58:09.761Z,40.70
2019-02-02T11:00:40.893Z,45.20
2019-02-02T11:03:10.543Z,45.87
2019-02-02T11:05:40.024Z,42.40
2019-02-02T11:08:09.587Z,45.47
2019-02-02T11:10:39.048Z,41.67
2019-02-02T11:13:09.106Z,44.03
2019-02-02T11:15:38.893Z,37.97
2019-02-02T11:18:08.886Z,40.23
2019-02-02T11:20:38.388Z,40.03
2019-02-02T11:23:07.839Z,41.37
2019-02-02T11:25:37.432Z,43.40
2019-02-02T11:28:07.079Z,41.00
2019-02-02T11:30:37.017Z,46.23
2019-02-02T11:33:06.413Z,51.37
2019-02-02T11:35:35.917Z,39.63
2019-02-02T11:38:05.447Z,42.50
2019-02-02T11:40:35.412Z,38.77
2019-02-02T11:43:05.251Z,41.73
2019-02-02T11:45:34.654Z,45.80
2019-02-02T11:48:04.530Z,37.43
2019-02-02T11:50:34.155Z,38.23
2019-02-02T11:53:03.560Z,42.77
2019-02-02T11:55:32.977Z,43.17
2019-02-02T11:58:02.367Z,38.53
2019-02-02T12:00:40.137Z,44.30
2019-02-02T12:03:09.610Z,47.53
2019-02-02T12:05:39.007Z,35.93
2019-02-02T12:08:08.670Z,40.33
2019-02-02T12:10:38.045Z,40.07
2019-02-02T12:13:07.564Z,44.23
2019-02-02T12:15:36.966Z,39.83
2019-02-02T12:18:06.561Z,31.67
2019-02-02T12:20:35.998Z,41.37
2019-02-02T12:23:05.727Z,40.43
2019-02-02T12:25:35.136Z,46.87
2019-02-02T12:28:05.024Z,44.93
2019-02-02T12:30:35.664Z,39.07
2019-02-02T12:33:06.138Z,41.80
2019-02-02T12:35:35.672Z,44.10
2019-02-02T12:38:05.293Z,35.97
2019-02-02T12:40:34.782Z,38.93
2019-02-02T12:43:04.594Z,37.60
2019-02-02T12:45:49.319Z,34.67
2019-02-02T12:48:18.787Z,61.43
2019-02-02T12:50:48.285Z,38.27
2019-02-02T12:53:18.029Z,41.67
2019-02-02T12:55:47.421Z,37.80
2019-02-02T12:58:16.818Z,43.53
2019-02-02T13:00:46.526Z,45.03
2019-02-02T13:03:15.946Z,66.17
2019-02-02T13:05:45.434Z,38.83
2019-02-02T13:08:14.861Z,42.03
2019-02-02T13:10:44.298Z,43.83
2019-02-02T13:13:13.791Z,42.87
2019-02-02T13:15:43.177Z,44.93
2019-02-02T13:18:12.596Z,39.70
2019-02-02T13:20:42.005Z,43.20
2019-02-02T13:23:11.471Z,38.17
2019-02-02T13:25:41.046Z,34.67
2019-02-02T13:28:10.580Z,30.17
2019-02-02T13:30:40.206Z,33.03
2019-02-02T13:33:09.573Z,32.70
2019-02-02T13:35:41.732Z,36.70
2019-02-02T13:38:11.221Z,37.20
2019-02-02T13:40:40.711Z,35.30
2019-02-02T13:43:10.203Z,33.70
2019-02-02T13:45:39.639Z,33.50
2019-02-02T13:48:09.040Z,31.20
2019-02-02T13:50:38.469Z,35.37
2019-02-02T13:53:09.515Z,37.03
2019-02-02T13:55:39.897Z,37.00
2019-02-02T13:58:09.824Z,38.27
2019-02-02T14:00:39.306Z,32.70
2019-02-02T14:03:08.723Z,32.83
2019-02-02T14:05:38.776Z,29.30
2019-02-02T14:08:08.185Z,38.07
2019-02-02T14:10:37.829Z,32.73
2019-02-02T14:13:07.230Z,30.37
2019-02-02T14:15:39.139Z,28.47
2019-02-02T14:18:07.906Z,30.20
2019-02-02T14:20:37.310Z,29.93
2019-02-02T14:23:07.006Z,37.13
2019-02-02T14:25:36.397Z,28.20
2019-02-02T14:28:06.145Z,29.10
2019-02-02T14:30:35.631Z,27.03
2019-02-02T14:33:13.728Z,33.27
2019-02-02T14:35:36.520Z,24.60
2019-02-02T14:38:06.021Z,34.27
2019-02-02T14:40:35.555Z,27.67
2019-02-02T14:43:05.143Z,35.23
2019-02-02T14:45:34.835Z,30.20
2019-02-02T14:48:05.903Z,32.80
2019-02-02T14:50:35.293Z,31.47
2019-02-02T14:53:05.226Z,33.87
2019-02-02T14:55:34.709Z,30.60
2019-02-02T14:58:04.849Z,26.67
2019-02-02T15:00:34.669Z,33.87
2019-02-02T15:03:04.495Z,29.60
2019-02-02T15:05:42.573Z,28.73
2019-02-02T15:08:05.075Z,33.17
2019-02-02T15:10:34.505Z,33.50
2019-02-02T15:13:03.895Z,33.43
2019-02-02T15:15:33.381Z,35.60
2019-02-02T15:18:02.786Z,25.30
2019-02-02T15:20:34.666Z,28.27
2019-02-02T15:23:04.707Z,31.27
2019-02-02T15:25:34.110Z,25.53
2019-02-02T15:28:03.506Z,31.67
2019-02-02T15:30:33.307Z,34.13
2019-02-02T15:33:02.711Z,26.80
2019-02-02T15:35:32.341Z,32.67
2019-02-02T15:38:03.102Z,32.07
2019-02-02T15:40:32.573Z,29.47
2019-02-02T15:43:01.961Z,32.67
2019-02-02T15:45:31.808Z,33.40
2019-02-02T15:48:01.388Z,27.57
2019-02-02T15:50:30.778Z,32.40
2019-02-02T15:53:00.331Z,30.63
2019-02-02T15:55:29.822Z,36.37
2019-02-02T15:57:59.194Z,31.73
2019-02-02T16:00:33.439Z,26.93
2019-02-02T16:03:02.827Z,30.67
2019-02-02T16:05:32.559Z,31.27
2019-02-02T16:08:03.583Z,29.37
2019-02-02T16:10:33.557Z,37.03
2019-02-02T16:13:03.475Z,31.33
2019-02-02T16:15:34.218Z,36.47
2019-02-02T16:18:04.471Z,38.53
2019-02-02T16:20:36.411Z,34.20
2019-02-02T16:23:06.788Z,35.57
2019-02-02T16:25:36.363Z,38.47
2019-02-02T16:28:06.215Z,38.17
2019-02-02T16:30:35.638Z,32.97
2019-02-02T16:33:05.599Z,42.50
2019-02-02T16:35:35.016Z,33.87
2019-02-02T16:38:04.728Z,34.67
2019-02-02T16:40:34.155Z,42.07
2019-02-02T16:43:03.699Z,52.73
2019-02-02T16:45:33.118Z,39.43
2019-02-02T16:48:02.622Z,46.30
2019-02-02T16:50:32.134Z,41.00
2019-02-02T16:53:01.577Z,42.63
2019-02-02T16:55:31.166Z,40.57
2019-02-02T16:58:00.852Z,53.10
2019-02-02T17:00:32.303Z,45.50
2019-02-02T17:03:01.972Z,59.17
2019-02-02T17:05:31.385Z,48.47
2019-02-02T17:08:03.070Z,44.90
2019-02-02T17:10:34.861Z,44.37
2019-02-02T17:13:04.810Z,55.57
2019-02-02T17:15:34.207Z,43.17
2019-02-02T17:18:03.933Z,48.20
2019-02-02T17:20:35.653Z,47.77
2019-02-02T17:23:05.527Z,42.47
2019-02-02T17:25:35.069Z,39.67
2019-02-02T17:28:06.172Z,37.97
2019-02-02T17:30:35.823Z,43.80
2019-02-02T17:33:08.573Z,42.77
2019-02-02T17:35:38.233Z,38.37
2019-02-02T17:38:07.729Z,37.17
2019-02-02T17:40:37.543Z,33.00
2019-02-02T17:43:07.103Z,44.03
2019-02-02T17:45:36.500Z,38.77
2019-02-02T17:48:06.997Z,39.83
2019-02-02T17:50:36.397Z,40.90
2019-02-02T17:53:06.013Z,42.53
2019-02-02T17:55:35.536Z,40.10
2019-02-02T17:58:08.265Z,41.40
2019-02-02T18:00:45.980Z,44.03
2019-02-02T18:03:15.424Z,52.03
2019-02-02T18:05:44.815Z,37.80
2019-02-02T18:08:14.215Z,42.13
2019-02-02T18:10:43.690Z,40.30
2019-02-02T18:13:13.097Z,34.00
2019-02-02T18:15:42.555Z,35.90
2019-02-02T18:18:11.950Z,60.50
2019-02-02T18:20:41.351Z,47.67
2019-02-02T18:23:10.769Z,42.17
2019-02-02T18:25:40.245Z,37.13
2019-02-02T18:28:09.693Z,34.43
2019-02-02T18:30:39.098Z,33.80
2019-02-02T18:33:08.664Z,34.90
2019-02-02T18:35:38.101Z,40.17
2019-02-02T18:38:07.541Z,56.10
2019-02-02T18:40:39.887Z,48.03
2019-02-02T18:43:08.304Z,49.63
2019-02-02T18:45:37.732Z,53.37
2019-02-02T18:48:07.976Z,43.30
2019-02-02T18:50:37.418Z,38.07
2019-02-02T18:53:07.055Z,34.60
2019-02-02T18:55:49.040Z,37.13
2019-02-02T18:58:18.610Z,38.67
2019-02-02T19:00:48.068Z,32.47
2019-02-02T19:03:18.909Z,37.27
2019-02-02T19:05:48.601Z,43.63
2019-02-02T19:08:18.101Z,35.70
2019-02-02T19:10:47.490Z,32.03
2019-02-02T19:13:17.074Z,41.07
2019-02-02T19:15:46.504Z,39.00
2019-02-02T19:18:15.942Z,32.67
2019-02-02T19:20:45.481Z,38.80
2019-02-02T19:23:24.705Z,40.50
2019-02-02T19:25:46.172Z,31.53
2019-02-02T19:28:15.821Z,40.00
2019-02-02T19:30:45.229Z,35.63
2019-02-02T19:33:16.586Z,44.40
2019-02-02T19:35:45.992Z,33.73
2019-02-02T19:38:15.844Z,38.13
2019-02-02T19:40:45.479Z,36.83
2019-02-02T19:43:14.922Z,40.87
2019-02-02T19:45:44.391Z,41.63
2019-02-02T19:48:13.787Z,45.17
2019-02-02T19:50:43.269Z,43.33
2019-02-02T19:53:12.734Z,48.97
2019-02-02T19:55:42.167Z,44.73
2019-02-02T19:58:11.759Z,43.13
2019-02-02T20:00:41.214Z,42.90
2019-02-02T20:03:10.624Z,39.57
2019-02-02T20:05:40.589Z,40.10
2019-02-02T20:08:10.011Z,50.70
2019-02-02T20:10:39.479Z,45.30
2019-02-02T20:13:08.897Z,40.30
2019-02-02T20:15:38.424Z,40.97
2019-02-02T20:18:10.279Z,58.50
2019-02-02T20:20:39.190Z,45.73
2019-02-02T20:23:08.654Z,50.40
2019-02-02T20:25:38.106Z,45.70
2019-02-02T20:28:07.838Z,41.90
2019-02-02T20:30:37.322Z,44.00
2019-02-02T20:33:07.021Z,43.73
2019-02-02T20:35:42.106Z,38.47
2019-02-02T20:38:08.620Z,45.17
2019-02-02T20:40:38.047Z,49.00
2019-02-02T20:43:07.457Z,47.70
2019-02-02T20:45:37.565Z,49.90
2019-02-02T20:48:07.331Z,60.17
2019-02-02T20:50:36.739Z,49.07
2019-02-02T20:53:06.271Z,36.13
2019-02-02T20:55:38.582Z,83.17
2019-02-02T20:58:08.162Z,44.43
2019-02-02T21:00:38.212Z,38.17
2019-02-02T21:03:08.030Z,50.37
2019-02-02T21:05:37.609Z,40.13
2019-02-02T21:08:07.548Z,46.57
2019-02-02T21:10:36.927Z,46.57
2019-02-02T21:13:06.537Z,61.93
2019-02-02T21:15:35.975Z,61.67
2019-02-02T21:18:05.886Z,47.70
2019-02-02T21:20:35.620Z,38.27
2019-02-02T21:23:05.302Z,43.33
2019-02-02T21:25:34.918Z,42.90
2019-02-02T21:28:07.151Z,42.27
2019-02-02T21:30:36.817Z,40.60
2019-02-02T21:33:07.024Z,58.00
2019-02-02T21:35:36.572Z,81.43
2019-02-02T21:38:06.795Z,57.83
2019-02-02T21:40:36.608Z,41.50
2019-02-02T21:43:08.131Z,45.63
2019-02-02T21:45:38.607Z,36.60
2019-02-02T21:48:08.039Z,52.83
2019-02-02T21:50:37.432Z,43.07
2019-02-02T21:53:07.014Z,51.43
2019-02-02T21:55:36.431Z,57.23
2019-02-02T21:58:06.121Z,56.63
2019-02-02T22:00:38.165Z,56.03
2019-02-02T22:03:08.222Z,51.57
2019-02-02T22:05:37.632Z,44.90
2019-02-02T22:08:08.464Z,43.93
2019-02-02T22:10:38.384Z,36.03
2019-02-02T22:13:08.591Z,34.83
2019-02-02T22:15:38.568Z,36.87
2019-02-02T22:18:07.988Z,39.10
2019-02-02T22:20:37.654Z,47.70
2019-02-02T22:23:07.085Z,44.57
2019-02-02T22:25:36.673Z,38.93
2019-02-02T22:28:06.312Z,40.63
2019-02-02T22:30:37.123Z,38.20
2019-02-02T22:33:06.994Z,39.90
2019-02-02T22:35:36.511Z,39.37
2019-02-02T22:38:06.131Z,43.47
2019-02-02T22:40:35.598Z,41.13
2019-02-02T22:43:05.669Z,45.97
2019-02-02T22:45:35.095Z,43.37
2019-02-02T22:48:07.655Z,41.80
2019-02-02T22:50:37.086Z,42.53
2019-02-02T22:53:06.849Z,42.37
2019-02-02T22:55:36.483Z,40.20
2019-02-02T22:58:06.174Z,43.03
2019-02-02T23:01:04.428Z,41.20
2019-02-02T23:03:37.148Z,48.23
2019-02-02T23:06:39.274Z,43.57
2019-02-02T23:09:47.947Z,44.60
2019-02-02T23:12:30.984Z,40.00
2019-02-02T23:15:21.456Z,41.37
2019-02-02T23:17:50.884Z,42.17
2019-02-02T23:20:20.273Z,44.50
2019-02-02T23:22:49.683Z,38.40
2019-02-02T23:25:19.110Z,42.07
2019-02-02T23:27:48.505Z,41.80
2019-02-02T23:30:18.516Z,41.83
2019-02-02T23:32:47.956Z,39.63
2019-02-02T23:35:17.396Z,42.10
2019-02-02T23:37:46.999Z,51.00
2019-02-02T23:40:16.460Z,43.20
2019-02-02T23:42:46.284Z,38.73
2019-02-02T23:45:15.799Z,41.63
2019-02-02T23:47:45.222Z,50.53
2019-02-02T23:50:14.602Z,43.10
2019-02-02T23:52:44.143Z,41.87
2019-02-02T23:55:13.845Z,39.87
2019-02-02T23:57:43.458Z,45.20
